createdAt,value
2022-08-19T00:01:44.086Z,23.10
2022-08-19T00:04:16.840Z,23.00
2022-08-19T00:06:46.237Z,23.00
2022-08-19T00:09:16.751Z,22.90
2022-08-19T00:11:44.753Z,23.00
2022-08-19T00:14:16.465Z,22.90
2022-08-19T00:16:48.213Z,23.10
2022-08-19T00:19:17.184Z,23.10
2022-08-19T00:21:45.345Z,23.10
2022-08-19T00:24:15.304Z,23.10
2022-08-19T00:26:44.448Z,23.10
2022-08-19T00:29:19.005Z,23.20
2022-08-19T00:31:50.731Z,23.00
2022-08-19T00:34:18.856Z,23.40
2022-08-19T00:36:48.327Z,23.30
2022-08-19T00:39:17.413Z,23.30
2022-08-19T00:41:48.419Z,23.30
2022-08-19T00:44:44.749Z,23.30
2022-08-19T00:47:14.257Z,23.30
2022-08-19T00:49:46.562Z,23.20
2022-08-19T00:52:17.321Z,23.20
2022-08-19T00:54:52.346Z,23.30
2022-08-19T00:57:29.675Z,23.20
2022-08-19T01:00:03.135Z,23.20
2022-08-19T01:02:34.113Z,23.00
2022-08-19T01:05:03.609Z,22.90
2022-08-19T01:07:38.025Z,23.10
2022-08-19T01:10:12.799Z,23.20
2022-08-19T01:12:43.125Z,23.20
2022-08-19T01:15:15.978Z,23.20
2022-08-19T01:17:44.821Z,23.20
2022-08-19T01:20:14.133Z,23.20
2022-08-19T01:22:47.456Z,23.10
2022-08-19T01:25:25.050Z,23.20
2022-08-19T01:27:54.676Z,23.10
2022-08-19T01:30:25.312Z,23.20
2022-08-19T01:32:54.754Z,23.20
2022-08-19T01:35:24.464Z,23.20
2022-08-19T01:38:01.542Z,23.10
2022-08-19T01:40:33.625Z,23.00
2022-08-19T01:43:01.741Z,22.90
2022-08-19T01:45:31.745Z,23.00
2022-08-19T01:48:02.264Z,22.90
2022-08-19T01:50:40.586Z,22.90
2022-08-19T01:53:13.052Z,22.80
2022-08-19T01:55:42.651Z,22.80
2022-08-19T01:58:14.262Z,22.90
2022-08-19T02:00:42.390Z,22.80
2022-08-19T02:03:12.071Z,22.90
2022-08-19T02:05:43.903Z,22.90
2022-08-19T02:08:14.021Z,22.90
2022-08-19T02:10:44.420Z,22.80
2022-08-19T02:13:12.948Z,22.80
2022-08-19T02:15:40.937Z,22.90
2022-08-19T02:18:10.707Z,22.70
2022-08-19T02:20:40.891Z,22.70
2022-08-19T02:23:13.815Z,22.80
2022-08-19T02:25:49.108Z,22.80
2022-08-19T02:28:18.970Z,22.70
2022-08-19T02:30:48.666Z,22.90
2022-08-19T02:33:17.246Z,22.70
2022-08-19T02:35:45.783Z,22.70
2022-08-19T02:38:29.027Z,22.70
2022-08-19T02:41:00.360Z,22.70
2022-08-19T02:43:29.511Z,22.80
2022-08-19T02:46:14.625Z,22.60
2022-08-19T02:48:42.513Z,22.60
2022-08-19T02:51:10.497Z,22.80
2022-08-19T02:53:38.263Z,22.70
2022-08-19T02:56:10.048Z,22.80
2022-08-19T02:58:39.832Z,22.60
2022-08-19T03:01:08.229Z,22.60
2022-08-19T03:03:36.066Z,22.70
2022-08-19T03:06:09.288Z,22.80
2022-08-19T03:08:37.858Z,22.80
2022-08-19T03:11:06.316Z,22.70
2022-08-19T03:13:35.459Z,22.60
2022-08-19T03:16:07.194Z,22.70
2022-08-19T03:18:34.980Z,22.60
2022-08-19T03:21:03.162Z,22.60
2022-08-19T03:23:30.957Z,22.60
2022-08-19T03:26:15.683Z,22.70
2022-08-19T03:28:51.646Z,22.70
2022-08-19T03:31:45.252Z,22.80
2022-08-19T03:34:19.083Z,22.60
2022-08-19T03:36:48.182Z,22.60
2022-08-19T03:39:16.792Z,22.60
2022-08-19T03:41:48.253Z,22.50
2022-08-19T03:44:21.557Z,22.50
2022-08-19T03:46:51.527Z,22.50
2022-08-19T03:49:19.881Z,22.30
2022-08-19T03:51:49.729Z,22.40
2022-08-19T03:54:19.190Z,22.40
2022-08-19T03:56:49.560Z,22.10
2022-08-19T03:59:21.469Z,22.00
2022-08-19T04:01:49.511Z,22.30
2022-08-19T04:04:17.308Z,22.40
2022-08-19T04:06:48.137Z,22.30
2022-08-19T04:09:16.082Z,22.20
2022-08-19T04:11:47.528Z,22.10
2022-08-19T04:14:19.399Z,22.20
2022-08-19T04:16:48.828Z,22.20
2022-08-19T04:19:18.717Z,22.10
2022-08-19T04:21:48.469Z,22.20
2022-08-19T04:24:17.180Z,21.70
2022-08-19T04:26:45.954Z,22.10
2022-08-19T04:29:16.715Z,21.80
2022-08-19T04:31:46.860Z,22.20
2022-08-19T04:34:18.003Z,22.20
2022-08-19T04:36:46.633Z,22.20
2022-08-19T04:39:16.731Z,22.10
2022-08-19T04:42:02.464Z,22.10
2022-08-19T04:44:33.157Z,22.10
2022-08-19T04:47:10.990Z,22.10
2022-08-19T04:49:39.726Z,21.50
2022-08-19T04:52:07.543Z,22.00
2022-08-19T04:54:37.386Z,21.90
2022-08-19T04:57:10.464Z,21.40
2022-08-19T04:59:39.524Z,21.80
2022-08-19T05:02:10.141Z,21.80
2022-08-19T05:04:40.092Z,21.80
2022-08-19T05:07:08.834Z,21.70
2022-08-19T05:09:58.236Z,21.80
2022-08-19T05:12:29.187Z,21.90
2022-08-19T05:14:58.591Z,22.10
2022-08-19T05:17:31.299Z,22.00
2022-08-19T05:20:18.847Z,22.00
2022-08-19T05:22:49.115Z,22.10
2022-08-19T05:25:20.447Z,22.00
2022-08-19T05:27:48.983Z,22.10
2022-08-19T05:30:17.826Z,22.20
2022-08-19T05:32:46.995Z,22.30
2022-08-19T05:35:14.768Z,22.30
2022-08-19T05:37:42.636Z,22.40
2022-08-19T05:40:12.009Z,22.50
2022-08-19T05:42:40.076Z,22.50
2022-08-19T05:45:09.074Z,22.70
2022-08-19T05:47:42.018Z,22.70
2022-08-19T05:50:11.619Z,23.00
2022-08-19T05:52:45.833Z,22.90
2022-08-19T05:55:14.314Z,22.90
2022-08-19T05:57:42.505Z,23.10
2022-08-19T06:00:12.428Z,23.10
2022-08-19T06:02:41.345Z,23.00
2022-08-19T06:05:11.952Z,23.00
2022-08-19T06:07:41.089Z,23.00
2022-08-19T06:10:11.511Z,23.00
2022-08-19T06:12:39.699Z,23.00
2022-08-19T06:15:11.696Z,23.20
2022-08-19T06:17:40.001Z,23.20
2022-08-19T06:20:14.075Z,23.30
2022-08-19T06:22:42.590Z,23.20
2022-08-19T06:25:11.083Z,23.20
2022-08-19T06:27:48.330Z,23.30
2022-08-19T06:30:27.512Z,23.30
2022-08-19T06:32:55.491Z,23.50
2022-08-19T06:35:24.793Z,23.50
2022-08-19T06:37:53.448Z,23.30
2022-08-19T06:40:21.577Z,23.30
2022-08-19T06:42:54.840Z,23.20
2022-08-19T06:45:24.719Z,23.20
2022-08-19T06:47:56.703Z,23.20
2022-08-19T06:50:26.346Z,23.30
2022-08-19T06:52:55.226Z,23.40
2022-08-19T06:55:23.243Z,23.60
2022-08-19T06:57:54.518Z,23.60
2022-08-19T07:00:22.813Z,23.70
2022-08-19T07:02:55.859Z,23.80
2022-08-19T07:05:28.597Z,24.00
2022-08-19T07:08:01.641Z,24.00
2022-08-19T07:10:33.666Z,24.00
2022-08-19T07:13:02.624Z,24.10
2022-08-19T07:15:31.516Z,24.20
2022-08-19T07:17:59.433Z,24.40
2022-08-19T07:20:29.592Z,24.40
2022-08-19T07:22:57.436Z,24.60
2022-08-19T07:25:31.865Z,24.80
2022-08-19T07:28:01.515Z,24.90
2022-08-19T07:30:29.725Z,25.10
2022-08-19T07:32:59.613Z,25.10
2022-08-19T07:35:33.089Z,25.20
2022-08-19T07:38:03.924Z,25.20
2022-08-19T07:40:32.459Z,25.20
2022-08-19T07:43:00.253Z,25.00
2022-08-19T07:45:28.169Z,25.00
2022-08-19T07:47:56.639Z,25.10
2022-08-19T07:50:24.542Z,25.30
2022-08-19T07:52:53.737Z,25.30
2022-08-19T07:55:40.003Z,25.30
2022-08-19T07:58:09.059Z,25.40
2022-08-19T08:00:37.204Z,25.70
2022-08-19T08:03:05.209Z,26.40
2022-08-19T08:05:50.670Z,27.20
2022-08-19T08:08:37.315Z,28.00
2022-08-19T08:11:14.897Z,28.60
2022-08-19T08:13:43.692Z,28.90
2022-08-19T08:16:14.373Z,28.70
2022-08-19T08:18:50.555Z,28.90
2022-08-19T08:21:20.811Z,29.00
2022-08-19T08:23:52.086Z,29.00
2022-08-19T08:26:21.034Z,29.10
2022-08-19T08:28:49.616Z,29.30
2022-08-19T08:31:19.451Z,29.00
2022-08-19T08:33:48.816Z,28.60
2022-08-19T08:36:17.915Z,29.30
2022-08-19T08:38:47.190Z,30.00
2022-08-19T08:41:24.390Z,31.10
2022-08-19T08:43:54.256Z,31.80
2022-08-19T08:46:30.754Z,32.50
2022-08-19T08:49:06.521Z,32.70
2022-08-19T08:51:37.119Z,33.50
2022-08-19T08:54:09.873Z,33.80
2022-08-19T08:56:41.946Z,34.00
2022-08-19T08:59:18.317Z,34.40
2022-08-19T09:01:46.514Z,34.30
2022-08-19T09:04:15.121Z,34.70
2022-08-19T09:06:52.712Z,34.80
2022-08-19T09:09:31.934Z,34.90
2022-08-19T09:12:11.780Z,35.00
2022-08-19T09:14:50.843Z,35.00
2022-08-19T09:17:21.805Z,35.30
2022-08-19T09:19:53.497Z,35.50
2022-08-19T09:22:25.962Z,35.80
2022-08-19T09:24:56.141Z,36.50
2022-08-19T09:27:53.877Z,36.50
2022-08-19T09:30:18.989Z,36.10
2022-08-19T09:32:46.911Z,35.80
2022-08-19T09:35:23.007Z,36.10
2022-08-19T09:37:51.293Z,36.80
2022-08-19T09:40:27.499Z,37.10
2022-08-19T09:43:03.388Z,36.60
2022-08-19T09:45:39.299Z,36.00
2022-08-19T09:48:07.100Z,35.40
2022-08-19T09:50:35.044Z,34.90
2022-08-19T09:53:02.892Z,34.70
2022-08-19T09:55:31.963Z,34.50
2022-08-19T09:58:04.854Z,35.00
2022-08-19T10:00:34.359Z,35.20
2022-08-19T10:03:02.131Z,34.60
2022-08-19T10:05:48.964Z,34.30
2022-08-19T10:08:18.709Z,34.70
2022-08-19T10:10:48.699Z,34.20
2022-08-19T10:13:22.773Z,34.10
2022-08-19T10:15:52.004Z,33.60
2022-08-19T10:18:21.289Z,33.30
2022-08-19T10:20:51.574Z,33.10
2022-08-19T10:23:22.218Z,33.40
2022-08-19T10:25:51.273Z,33.50
2022-08-19T10:28:20.472Z,33.90
2022-08-19T10:30:49.216Z,34.10
2022-08-19T10:33:38.462Z,34.60
2022-08-19T10:36:07.727Z,35.00
2022-08-19T10:38:36.076Z,34.50
2022-08-19T10:41:13.455Z,34.40
2022-08-19T10:43:43.476Z,34.80
2022-08-19T10:46:13.800Z,35.30
2022-08-19T10:48:42.958Z,35.40
2022-08-19T10:51:29.087Z,35.80
2022-08-19T10:53:57.264Z,36.20
2022-08-19T10:56:42.451Z,36.40
2022-08-19T10:59:12.241Z,36.40
2022-08-19T11:01:40.096Z,35.20
2022-08-19T11:04:10.828Z,34.30
2022-08-19T11:06:39.213Z,33.60
2022-08-19T11:09:07.356Z,33.10
2022-08-19T11:11:42.260Z,32.70
2022-08-19T11:14:14.601Z,32.80
2022-08-19T11:16:43.811Z,33.10
2022-08-19T11:19:13.671Z,32.70
2022-08-19T11:21:44.242Z,32.20
2022-08-19T11:24:14.284Z,31.80
2022-08-19T11:26:45.445Z,31.20
2022-08-19T11:29:15.248Z,31.40
2022-08-19T11:31:45.464Z,31.50
2022-08-19T11:34:15.609Z,31.60
2022-08-19T11:36:45.792Z,31.70
2022-08-19T11:39:16.309Z,31.40
2022-08-19T11:41:44.099Z,31.90
2022-08-19T11:44:11.931Z,32.40
2022-08-19T11:46:41.027Z,33.00
2022-08-19T11:49:13.771Z,32.80
2022-08-19T11:51:44.001Z,32.50
2022-08-19T11:54:13.634Z,32.60
2022-08-19T11:56:42.068Z,32.80
2022-08-19T11:59:14.611Z,32.20
2022-08-19T12:01:44.524Z,32.00
2022-08-19T12:04:13.246Z,32.30
2022-08-19T12:06:42.769Z,32.60
2022-08-19T12:09:11.602Z,33.00
2022-08-19T12:11:40.421Z,33.20
2022-08-19T12:14:14.617Z,33.10
2022-08-19T12:16:51.334Z,32.90
2022-08-19T12:19:22.249Z,32.60
2022-08-19T12:21:51.077Z,32.20
2022-08-19T12:24:23.881Z,31.90
2022-08-19T12:26:53.218Z,31.80
2022-08-19T12:29:23.872Z,32.20
2022-08-19T12:31:53.661Z,32.20
2022-08-19T12:34:21.857Z,32.40
2022-08-19T12:36:51.043Z,32.80
2022-08-19T12:39:19.002Z,33.20
2022-08-19T12:41:54.864Z,33.60
2022-08-19T12:44:29.399Z,33.20
2022-08-19T12:47:01.222Z,32.90
2022-08-19T12:49:53.868Z,32.30
2022-08-19T12:52:23.232Z,32.10
2022-08-19T12:54:53.680Z,32.00
2022-08-19T12:57:22.107Z,31.90
2022-08-19T12:59:55.067Z,32.20
2022-08-19T13:02:24.827Z,32.50
2022-08-19T13:04:52.615Z,32.50
2022-08-19T13:07:20.379Z,32.40
2022-08-19T13:09:48.210Z,32.40
2022-08-19T13:12:16.623Z,32.80
2022-08-19T13:14:47.013Z,33.20
2022-08-19T13:17:16.306Z,33.50
2022-08-19T13:19:45.512Z,33.60
2022-08-19T13:22:15.128Z,33.80
2022-08-19T13:24:47.266Z,33.40
2022-08-19T13:27:16.335Z,33.10
2022-08-19T13:30:02.145Z,33.20
2022-08-19T13:32:48.974Z,33.40
2022-08-19T13:35:18.829Z,33.30
2022-08-19T13:37:46.706Z,33.50
2022-08-19T13:40:19.055Z,33.20
2022-08-19T13:42:48.814Z,33.40
2022-08-19T13:45:18.829Z,33.20
2022-08-19T13:47:47.812Z,33.00
2022-08-19T13:50:20.547Z,32.90
2022-08-19T13:52:49.091Z,32.40
2022-08-19T13:55:22.164Z,32.30
2022-08-19T13:57:53.850Z,32.00
2022-08-19T14:00:23.017Z,32.10
2022-08-19T14:02:53.454Z,32.20
2022-08-19T14:05:23.414Z,32.30
2022-08-19T14:07:51.394Z,32.10
2022-08-19T14:10:20.708Z,32.50
2022-08-19T14:12:49.284Z,32.50
2022-08-19T14:15:18.038Z,32.60
2022-08-19T14:17:49.456Z,32.70
2022-08-19T14:20:18.518Z,32.40
2022-08-19T14:22:49.365Z,32.50
2022-08-19T14:25:19.535Z,32.70
2022-08-19T14:27:47.867Z,33.10
2022-08-19T14:30:18.352Z,33.20
2022-08-19T14:32:46.171Z,33.30
2022-08-19T14:35:15.761Z,33.30
2022-08-19T14:37:46.036Z,33.40
2022-08-19T14:40:16.959Z,33.40
2022-08-19T14:42:45.488Z,33.40
2022-08-19T14:45:13.527Z,33.20
2022-08-19T14:47:41.660Z,33.00
2022-08-19T14:50:17.851Z,32.80
2022-08-19T14:52:47.309Z,32.80
2022-08-19T14:55:17.098Z,32.60
2022-08-19T14:57:46.093Z,32.60
2022-08-19T15:00:15.561Z,32.70
2022-08-19T15:02:44.983Z,32.80
2022-08-19T15:05:13.554Z,32.90
2022-08-19T15:07:41.768Z,33.00
2022-08-19T15:10:11.841Z,32.80
2022-08-19T15:12:41.729Z,32.70
2022-08-19T15:15:13.544Z,32.60
2022-08-19T15:17:45.556Z,32.60
2022-08-19T15:20:16.661Z,32.30
2022-08-19T15:22:44.463Z,32.30
2022-08-19T15:25:15.179Z,32.40
2022-08-19T15:27:44.452Z,32.50
2022-08-19T15:30:13.810Z,32.40
2022-08-19T15:32:43.488Z,32.10
2022-08-19T15:35:14.337Z,32.10
2022-08-19T15:37:42.112Z,32.10
2022-08-19T15:40:11.035Z,32.00
2022-08-19T15:42:42.263Z,31.80
2022-08-19T15:45:12.984Z,31.40
2022-08-19T15:47:41.439Z,31.20
2022-08-19T15:50:12.194Z,31.30
2022-08-19T15:52:49.533Z,31.30
2022-08-19T15:55:31.387Z,31.50
2022-08-19T15:58:24.104Z,31.70
2022-08-19T16:01:16.743Z,31.60
2022-08-19T16:04:06.033Z,31.40
2022-08-19T16:06:44.832Z,31.10
2022-08-19T16:09:12.968Z,30.70
2022-08-19T16:11:45.559Z,30.50
2022-08-19T16:14:15.020Z,30.40
2022-08-19T16:16:47.115Z,30.30
2022-08-19T16:19:17.090Z,30.20
2022-08-19T16:21:45.876Z,30.10
2022-08-19T16:24:15.106Z,30.10
2022-08-19T16:26:44.074Z,29.80
2022-08-19T16:29:13.238Z,29.70
2022-08-19T16:31:44.520Z,29.70
2022-08-19T16:34:13.309Z,29.70
2022-08-19T16:36:43.374Z,29.70
2022-08-19T16:39:12.595Z,29.80
2022-08-19T16:41:41.589Z,29.80
2022-08-19T16:44:10.977Z,29.80
2022-08-19T16:46:39.706Z,29.70
2022-08-19T16:49:10.591Z,29.70
2022-08-19T16:51:38.773Z,29.60
2022-08-19T16:54:07.046Z,29.70
2022-08-19T16:56:35.096Z,29.70
2022-08-19T16:59:02.959Z,29.80
2022-08-19T17:01:30.949Z,29.70
2022-08-19T17:03:59.207Z,29.60
2022-08-19T17:06:31.976Z,29.60
2022-08-19T17:09:01.774Z,29.60
2022-08-19T17:11:32.860Z,29.60
2022-08-19T17:14:01.633Z,29.60
2022-08-19T17:16:32.028Z,29.50
2022-08-19T17:19:01.643Z,29.30
2022-08-19T17:21:33.052Z,29.40
2022-08-19T17:24:02.198Z,29.40
2022-08-19T17:26:30.439Z,29.40
2022-08-19T17:28:59.480Z,29.30
2022-08-19T17:31:29.943Z,29.30
2022-08-19T17:33:58.765Z,29.30
2022-08-19T17:36:28.217Z,29.20
2022-08-19T17:38:59.087Z,29.20
2022-08-19T17:41:27.816Z,29.20
2022-08-19T17:43:56.056Z,29.00
2022-08-19T17:46:23.785Z,29.00
2022-08-19T17:48:55.239Z,29.00
2022-08-19T17:51:27.388Z,29.00
2022-08-19T17:53:55.305Z,28.90
2022-08-19T17:56:24.824Z,28.90
2022-08-19T17:59:00.105Z,28.90
2022-08-19T18:01:52.759Z,28.80
2022-08-19T18:04:19.642Z,28.80
2022-08-19T18:06:53.331Z,28.80
2022-08-19T18:09:24.275Z,28.80
2022-08-19T18:11:55.324Z,28.70
2022-08-19T18:14:32.062Z,28.80
2022-08-19T18:17:05.463Z,28.80
2022-08-19T18:19:42.296Z,28.70
2022-08-19T18:22:12.201Z,28.60
2022-08-19T18:24:40.961Z,28.60
2022-08-19T18:27:10.227Z,28.50
2022-08-19T18:29:40.011Z,28.60
2022-08-19T18:32:12.445Z,28.50
2022-08-19T18:34:40.952Z,28.50
2022-08-19T18:37:08.753Z,28.50
2022-08-19T18:39:54.454Z,28.50
2022-08-19T18:42:41.285Z,28.50
2022-08-19T18:45:28.031Z,28.30
2022-08-19T18:48:26.564Z,28.30
2022-08-19T18:50:56.933Z,28.30
2022-08-19T18:53:24.787Z,28.20
2022-08-19T18:55:55.150Z,28.30
2022-08-19T18:58:26.703Z,28.20
2022-08-19T19:00:56.741Z,28.20
2022-08-19T19:03:25.568Z,28.10
2022-08-19T19:05:53.643Z,28.10
2022-08-19T19:08:27.040Z,28.10
2022-08-19T19:10:56.046Z,28.10
2022-08-19T19:13:26.698Z,28.00
2022-08-19T19:15:55.406Z,28.00
2022-08-19T19:18:23.286Z,28.00
2022-08-19T19:20:51.125Z,27.90
2022-08-19T19:23:18.987Z,28.00
2022-08-19T19:25:50.242Z,27.90
2022-08-19T19:28:25.122Z,27.90
2022-08-19T19:30:57.455Z,27.80
2022-08-19T19:33:25.712Z,27.80
2022-08-19T19:35:53.932Z,27.70
2022-08-19T19:38:21.888Z,27.60
2022-08-19T19:40:49.768Z,27.70
2022-08-19T19:43:18.268Z,27.60
2022-08-19T19:45:48.153Z,27.50
2022-08-19T19:48:17.329Z,27.50
2022-08-19T19:50:46.234Z,27.50
2022-08-19T19:53:22.063Z,27.50
2022-08-19T19:55:50.924Z,27.50
2022-08-19T19:58:21.313Z,27.50
2022-08-19T20:00:57.297Z,27.50
2022-08-19T20:03:26.784Z,27.40
2022-08-19T20:05:58.164Z,27.40
2022-08-19T20:08:43.950Z,27.40
2022-08-19T20:11:11.704Z,27.40
2022-08-19T20:13:40.488Z,27.40
2022-08-19T20:16:08.865Z,27.40
2022-08-19T20:18:40.085Z,27.40
2022-08-19T20:21:07.961Z,27.30
2022-08-19T20:23:36.182Z,27.20
2022-08-19T20:26:06.380Z,27.20
2022-08-19T20:28:37.799Z,27.10
2022-08-19T20:31:11.631Z,27.10
2022-08-19T20:33:40.791Z,27.00
2022-08-19T20:36:08.732Z,26.90
2022-08-19T20:38:37.507Z,26.80
2022-08-19T20:41:05.793Z,26.80
2022-08-19T20:43:34.262Z,26.70
2022-08-19T20:46:03.237Z,26.60
2022-08-19T20:48:31.469Z,26.50
2022-08-19T20:51:00.727Z,26.40
2022-08-19T20:53:28.701Z,26.40
2022-08-19T20:55:57.620Z,26.40
2022-08-19T20:58:28.377Z,26.30
2022-08-19T21:00:59.909Z,26.30
2022-08-19T21:03:29.832Z,26.30
2022-08-19T21:05:58.569Z,26.20
2022-08-19T21:08:28.120Z,26.20
2022-08-19T21:10:58.002Z,26.10
2022-08-19T21:13:26.587Z,26.00
2022-08-19T21:15:54.680Z,25.90
2022-08-19T21:18:25.072Z,25.90
2022-08-19T21:20:53.087Z,25.80
2022-08-19T21:23:23.612Z,25.80
2022-08-19T21:25:54.944Z,25.70
2022-08-19T21:28:34.981Z,25.70
2022-08-19T21:31:06.577Z,25.60
2022-08-19T21:33:35.068Z,25.60
2022-08-19T21:36:03.965Z,25.50
2022-08-19T21:38:32.106Z,25.40
2022-08-19T21:41:05.764Z,25.20
2022-08-19T21:43:34.415Z,25.10
2022-08-19T21:46:02.335Z,25.00
2022-08-19T21:48:30.171Z,24.90
2022-08-19T21:50:58.034Z,24.80
2022-08-19T21:53:25.836Z,24.80
2022-08-19T21:56:02.550Z,24.60
2022-08-19T21:58:30.790Z,24.70
2022-08-19T22:00:58.889Z,24.80
2022-08-19T22:03:27.292Z,24.90
2022-08-19T22:05:55.224Z,24.90
2022-08-19T22:08:23.265Z,24.90
2022-08-19T22:10:51.240Z,24.80
2022-08-19T22:13:21.607Z,24.80
2022-08-19T22:15:51.808Z,24.60
2022-08-19T22:18:19.740Z,24.50
2022-08-19T22:20:47.724Z,24.50
2022-08-19T22:23:15.675Z,24.50
2022-08-19T22:25:46.084Z,24.50
2022-08-19T22:28:19.036Z,24.50
2022-08-19T22:30:56.959Z,24.60
2022-08-19T22:33:27.500Z,24.40
2022-08-19T22:35:55.396Z,24.40
2022-08-19T22:38:23.850Z,24.30
2022-08-19T22:40:53.108Z,24.20
2022-08-19T22:43:23.916Z,24.10
2022-08-19T22:45:54.016Z,24.10
2022-08-19T22:48:24.944Z,24.00
2022-08-19T22:51:11.061Z,24.10
2022-08-19T22:53:41.440Z,24.20
2022-08-19T22:56:15.071Z,24.10
2022-08-19T22:58:43.715Z,24.20
2022-08-19T23:01:13.020Z,24.20
2022-08-19T23:03:56.506Z,24.20
2022-08-19T23:06:33.083Z,24.20
2022-08-19T23:09:04.741Z,24.30
2022-08-19T23:11:35.446Z,24.20
2022-08-19T23:14:03.867Z,24.20
2022-08-19T23:16:34.556Z,24.20
2022-08-19T23:19:04.651Z,24.20
2022-08-19T23:21:32.463Z,24.00
2022-08-19T23:24:00.269Z,24.00
2022-08-19T23:26:30.715Z,23.90
2022-08-19T23:29:18.884Z,23.80
2022-08-19T23:31:49.708Z,23.70
2022-08-19T23:34:18.963Z,23.50
2022-08-19T23:36:46.708Z,23.50
2022-08-19T23:39:14.453Z,23.50
2022-08-19T23:41:42.219Z,23.50
2022-08-19T23:44:14.726Z,23.50
2022-08-19T23:46:55.370Z,23.60
2022-08-19T23:49:26.140Z,23.50
2022-08-19T23:51:55.604Z,23.50
2022-08-19T23:54:23.552Z,23.40
2022-08-19T23:57:14.173Z,23.40
2022-08-19T23:59:44.935Z,23.30
